sensor_id;sensor_type;location;lat;lon;timestamp;temperature;humidity
26575;DHT22;67165;50.256;10.978;2024-02-04T00:01:18;7.90;98.00
26575;DHT22;67165;50.256;10.978;2024-02-04T00:03:44;8.00;98.00
26575;DHT22;67165;50.256;10.978;2024-02-04T00:06:10;7.90;98.00
26575;DHT22;67165;50.256;10.978;2024-02-04T00:08:36;7.90;98.00
26575;DHT22;67165;50.256;10.978;2024-02-04T00:11:02;7.90;98.00
26575;DHT22;67165;50.256;10.978;2024-02-04T00:13:30;7.90;98.00
26575;DHT22;67165;50.256;10.978;2024-02-04T00:15:56;7.90;98.00
26575;DHT22;67165;50.256;10.978;2024-02-04T00:18:24;7.90;98.00
26575;DHT22;67165;50.256;10.978;2024-02-04T00:20:50;7.90;98.00
26575;DHT22;67165;50.256;10.978;2024-02-04T00:23:16;7.90;98.00
26575;DHT22;67165;50.256;10.978;2024-02-04T00:25:41;7.90;98.00
26575;DHT22;67165;50.256;10.978;2024-02-04T00:28:07;7.90;98.00
26575;DHT22;67165;50.256;10.978;2024-02-04T00:30:39;7.90;98.00
26575;DHT22;67165;50.256;10.978;2024-02-04T00:33:05;7.90;98.00
26575;DHT22;67165;50.256;10.978;2024-02-04T00:35:31;7.90;98.00
26575;DHT22;67165;50.256;10.978;2024-02-04T00:37:57;7.90;98.00
26575;DHT22;67165;50.256;10.978;2024-02-04T00:40:23;8.00;98.00
26575;DHT22;67165;50.256;10.978;2024-02-04T00:42:48;8.00;98.00
26575;DHT22;67165;50.256;10.978;2024-02-04T00:45:14;8.00;98.00
26575;DHT22;67165;50.256;10.978;2024-02-04T00:47:40;7.90;98.00
26575;DHT22;67165;50.256;10.978;2024-02-04T00:50:06;7.90;98.00
26575;DHT22;67165;50.256;10.978;2024-02-04T00:52:32;7.90;98.00
26575;DHT22;67165;50.256;10.978;2024-02-04T00:54:58;7.90;98.00
26575;DHT22;67165;50.256;10.978;2024-02-04T00:57:23;7.90;98.00
26575;DHT22;67165;50.256;10.978;2024-02-04T00:59:49;7.90;98.00
26575;DHT22;67165;50.256;10.978;2024-02-04T01:02:18;7.90;98.00
26575;DHT22;67165;50.256;10.978;2024-02-04T01:04:44;7.90;98.00
26575;DHT22;67165;50.256;10.978;2024-02-04T01:07:09;7.90;98.00
26575;DHT22;67165;50.256;10.978;2024-02-04T01:09:35;7.90;98.00
26575;DHT22;67165;50.256;10.978;2024-02-04T01:12:01;7.90;98.00
26575;DHT22;67165;50.256;10.978;2024-02-04T01:14:27;7.90;98.00
26575;DHT22;67165;50.256;10.978;2024-02-04T01:16:53;7.90;98.00
26575;DHT22;67165;50.256;10.978;2024-02-04T01:19:18;8.00;98.00
26575;DHT22;67165;50.256;10.978;2024-02-04T01:21:44;7.90;98.00
26575;DHT22;67165;50.256;10.978;2024-02-04T01:24:10;7.90;98.00
26575;DHT22;67165;50.256;10.978;2024-02-04T01:26:35;7.90;98.00
26575;DHT22;67165;50.256;10.978;2024-02-04T01:29:01;7.90;98.00
26575;DHT22;67165;50.256;10.978;2024-02-04T01:31:27;7.90;98.00
26575;DHT22;67165;50.256;10.978;2024-02-04T01:33:53;7.90;98.00
26575;DHT22;67165;50.256;10.978;2024-02-04T01:36:18;7.90;98.00
26575;DHT22;67165;50.256;10.978;2024-02-04T01:38:44;7.90;98.00
26575;DHT22;67165;50.256;10.978;2024-02-04T01:41:10;7.90;98.00
26575;DHT22;67165;50.256;10.978;2024-02-04T01:43:36;7.90;98.00
26575;DHT22;67165;50.256;10.978;2024-02-04T01:46:01;8.00;98.00
26575;DHT22;67165;50.256;10.978;2024-02-04T01:48:27;8.00;98.00
26575;DHT22;67165;50.256;10.978;2024-02-04T01:50:55;8.00;98.00
26575;DHT22;67165;50.256;10.978;2024-02-04T01:53:24;8.00;98.00
26575;DHT22;67165;50.256;10.978;2024-02-04T01:55:51;7.90;98.00
26575;DHT22;67165;50.256;10.978;2024-02-04T01:58:17;7.90;98.00
26575;DHT22;67165;50.256;10.978;2024-02-04T02:00:44;8.00;98.00
26575;DHT22;67165;50.256;10.978;2024-02-04T02:03:12;7.90;98.00
26575;DHT22;67165;50.256;10.978;2024-02-04T02:05:39;7.90;98.00
26575;DHT22;67165;50.256;10.978;2024-02-04T02:08:05;8.00;98.00
26575;DHT22;67165;50.256;10.978;2024-02-04T02:10:31;8.00;98.00
26575;DHT22;67165;50.256;10.978;2024-02-04T02:13:22;8.00;98.00
26575;DHT22;67165;50.256;10.978;2024-02-04T02:15:56;8.00;98.00
26575;DHT22;67165;50.256;10.978;2024-02-04T02:18:31;8.00;98.00
26575;DHT22;67165;50.256;10.978;2024-02-04T02:23:36;8.00;98.00
26575;DHT22;67165;50.256;10.978;2024-02-04T02:26:06;8.00;98.00
26575;DHT22;67165;50.256;10.978;2024-02-04T02:28:32;8.00;98.00
26575;DHT22;67165;50.256;10.978;2024-02-04T02:30:58;8.00;98.00
26575;DHT22;67165;50.256;10.978;2024-02-04T02:33:23;8.00;98.00
26575;DHT22;67165;50.256;10.978;2024-02-04T02:35:53;8.00;98.00
26575;DHT22;67165;50.256;10.978;2024-02-04T02:38:46;7.90;98.00
26575;DHT22;67165;50.256;10.978;2024-02-04T02:41:16;8.00;98.00
26575;DHT22;67165;50.256;10.978;2024-02-04T02:43:43;7.90;98.00
26575;DHT22;67165;50.256;10.978;2024-02-04T02:46:09;8.00;98.00
26575;DHT22;67165;50.256;10.978;2024-02-04T02:48:36;8.00;98.00
26575;DHT22;67165;50.256;10.978;2024-02-04T02:51:01;8.00;98.00
26575;DHT22;67165;50.256;10.978;2024-02-04T02:53:27;8.10;98.00
26575;DHT22;67165;50.256;10.978;2024-02-04T02:55:53;8.10;98.00
26575;DHT22;67165;50.256;10.978;2024-02-04T02:58:19;8.00;98.00
26575;DHT22;67165;50.256;10.978;2024-02-04T03:00:44;8.00;98.00
26575;DHT22;67165;50.256;10.978;2024-02-04T03:03:11;8.10;98.00
26575;DHT22;67165;50.256;10.978;2024-02-04T03:05:36;8.00;98.00
26575;DHT22;67165;50.256;10.978;2024-02-04T03:08:03;8.10;98.00
26575;DHT22;67165;50.256;10.978;2024-02-04T03:10:29;8.10;98.00
26575;DHT22;67165;50.256;10.978;2024-02-04T03:12:55;8.00;98.00
26575;DHT22;67165;50.256;10.978;2024-02-04T03:15:21;8.10;98.00
26575;DHT22;67165;50.256;10.978;2024-02-04T03:17:46;8.00;98.00
26575;DHT22;67165;50.256;10.978;2024-02-04T03:20:12;8.00;98.00
26575;DHT22;67165;50.256;10.978;2024-02-04T03:22:38;8.10;98.00
26575;DHT22;67165;50.256;10.978;2024-02-04T03:25:04;8.00;98.00
26575;DHT22;67165;50.256;10.978;2024-02-04T03:27:30;8.00;98.00
26575;DHT22;67165;50.256;10.978;2024-02-04T03:29:55;8.00;98.00
26575;DHT22;67165;50.256;10.978;2024-02-04T03:32:21;8.00;98.00
26575;DHT22;67165;50.256;10.978;2024-02-04T03:34:47;8.10;98.00
26575;DHT22;67165;50.256;10.978;2024-02-04T03:37:13;8.00;98.00
26575;DHT22;67165;50.256;10.978;2024-02-04T03:39:38;8.00;98.00
26575;DHT22;67165;50.256;10.978;2024-02-04T03:42:04;8.10;98.00
26575;DHT22;67165;50.256;10.978;2024-02-04T03:44:30;8.10;98.00
26575;DHT22;67165;50.256;10.978;2024-02-04T03:46:56;8.10;98.00
26575;DHT22;67165;50.256;10.978;2024-02-04T03:49:21;8.10;98.00
26575;DHT22;67165;50.256;10.978;2024-02-04T03:51:47;8.10;98.00
26575;DHT22;67165;50.256;10.978;2024-02-04T03:54:13;8.00;98.00
26575;DHT22;67165;50.256;10.978;2024-02-04T03:56:38;8.10;98.00
26575;DHT22;67165;50.256;10.978;2024-02-04T03:59:04;8.00;98.00
26575;DHT22;67165;50.256;10.978;2024-02-04T04:01:32;8.00;98.00
26575;DHT22;67165;50.256;10.978;2024-02-04T04:03:57;8.00;98.00
26575;DHT22;67165;50.256;10.978;2024-02-04T04:06:23;8.00;98.00
26575;DHT22;67165;50.256;10.978;2024-02-04T04:08:49;8.00;98.00
26575;DHT22;67165;50.256;10.978;2024-02-04T04:11:15;8.10;98.00
26575;DHT22;67165;50.256;10.978;2024-02-04T04:13:40;8.00;98.00
26575;DHT22;67165;50.256;10.978;2024-02-04T04:16:06;8.10;98.00
26575;DHT22;67165;50.256;10.978;2024-02-04T04:18:32;8.10;98.00
26575;DHT22;67165;50.256;10.978;2024-02-04T04:20:58;8.10;98.00
26575;DHT22;67165;50.256;10.978;2024-02-04T04:23:24;8.10;98.00
26575;DHT22;67165;50.256;10.978;2024-02-04T04:25:49;8.20;98.00
26575;DHT22;67165;50.256;10.978;2024-02-04T04:28:15;8.10;98.00
26575;DHT22;67165;50.256;10.978;2024-02-04T04:30:41;8.10;98.00
26575;DHT22;67165;50.256;10.978;2024-02-04T04:33:06;8.10;98.00
26575;DHT22;67165;50.256;10.978;2024-02-04T04:35:33;8.10;98.00
26575;DHT22;67165;50.256;10.978;2024-02-04T04:37:59;8.10;98.00
26575;DHT22;67165;50.256;10.978;2024-02-04T04:40:25;8.10;98.00
26575;DHT22;67165;50.256;10.978;2024-02-04T04:42:50;8.00;98.00
26575;DHT22;67165;50.256;10.978;2024-02-04T04:45:16;8.00;98.00
26575;DHT22;67165;50.256;10.978;2024-02-04T04:47:42;8.00;98.00
26575;DHT22;67165;50.256;10.978;2024-02-04T04:50:08;7.90;98.00
26575;DHT22;67165;50.256;10.978;2024-02-04T04:52:34;8.00;98.00
26575;DHT22;67165;50.256;10.978;2024-02-04T04:54:59;8.00;98.00
26575;DHT22;67165;50.256;10.978;2024-02-04T04:57:25;8.00;98.00
26575;DHT22;67165;50.256;10.978;2024-02-04T04:59:51;8.00;98.00
26575;DHT22;67165;50.256;10.978;2024-02-04T05:02:17;7.90;98.00
26575;DHT22;67165;50.256;10.978;2024-02-04T05:04:43;7.90;98.00
26575;DHT22;67165;50.256;10.978;2024-02-04T05:07:13;7.90;98.00
26575;DHT22;67165;50.256;10.978;2024-02-04T05:09:39;7.80;98.00
26575;DHT22;67165;50.256;10.978;2024-02-04T05:12:06;7.90;98.00
26575;DHT22;67165;50.256;10.978;2024-02-04T05:14:32;7.90;98.00
26575;DHT22;67165;50.256;10.978;2024-02-04T05:16:57;7.90;98.00
26575;DHT22;67165;50.256;10.978;2024-02-04T05:19:23;7.90;98.00
26575;DHT22;67165;50.256;10.978;2024-02-04T05:21:49;7.90;98.00
26575;DHT22;67165;50.256;10.978;2024-02-04T05:24:14;7.90;98.00
26575;DHT22;67165;50.256;10.978;2024-02-04T05:26:40;7.80;98.00
26575;DHT22;67165;50.256;10.978;2024-02-04T05:29:06;7.80;98.00
26575;DHT22;67165;50.256;10.978;2024-02-04T05:31:32;7.80;98.00
26575;DHT22;67165;50.256;10.978;2024-02-04T05:33:57;7.80;98.00
26575;DHT22;67165;50.256;10.978;2024-02-04T05:36:23;7.80;98.00
26575;DHT22;67165;50.256;10.978;2024-02-04T05:38:49;7.90;98.00
26575;DHT22;67165;50.256;10.978;2024-02-04T05:41:14;7.80;98.00
26575;DHT22;67165;50.256;10.978;2024-02-04T05:43:40;7.80;98.00
26575;DHT22;67165;50.256;10.978;2024-02-04T05:46:06;7.80;98.00
26575;DHT22;67165;50.256;10.978;2024-02-04T05:48:31;7.80;98.00
26575;DHT22;67165;50.256;10.978;2024-02-04T05:50:57;7.80;98.00
26575;DHT22;67165;50.256;10.978;2024-02-04T05:53:23;7.80;98.00
26575;DHT22;67165;50.256;10.978;2024-02-04T05:55:49;7.70;98.00
26575;DHT22;67165;50.256;10.978;2024-02-04T05:58:14;7.70;98.00
26575;DHT22;67165;50.256;10.978;2024-02-04T06:00:40;7.70;98.00
26575;DHT22;67165;50.256;10.978;2024-02-04T06:03:06;7.70;98.00
26575;DHT22;67165;50.256;10.978;2024-02-04T06:05:32;7.70;98.00
26575;DHT22;67165;50.256;10.978;2024-02-04T06:07:58;7.60;98.00
26575;DHT22;67165;50.256;10.978;2024-02-04T06:10:24;7.70;98.00
26575;DHT22;67165;50.256;10.978;2024-02-04T06:12:49;7.60;98.00
26575;DHT22;67165;50.256;10.978;2024-02-04T06:15:15;7.70;98.00
26575;DHT22;67165;50.256;10.978;2024-02-04T06:17:42;7.70;98.00
26575;DHT22;67165;50.256;10.978;2024-02-04T06:20:08;7.60;98.00
26575;DHT22;67165;50.256;10.978;2024-02-04T06:22:34;7.50;98.00
26575;DHT22;67165;50.256;10.978;2024-02-04T06:25:02;7.50;98.00
26575;DHT22;67165;50.256;10.978;2024-02-04T06:27:27;7.50;98.00
26575;DHT22;67165;50.256;10.978;2024-02-04T06:29:53;7.60;98.00
26575;DHT22;67165;50.256;10.978;2024-02-04T06:32:19;7.60;98.00
26575;DHT22;67165;50.256;10.978;2024-02-04T06:34:49;7.50;98.00
26575;DHT22;67165;50.256;10.978;2024-02-04T06:37:16;7.60;98.00
26575;DHT22;67165;50.256;10.978;2024-02-04T06:39:42;7.60;98.00
26575;DHT22;67165;50.256;10.978;2024-02-04T06:42:08;7.50;98.00
26575;DHT22;67165;50.256;10.978;2024-02-04T06:44:34;7.50;98.00
26575;DHT22;67165;50.256;10.978;2024-02-04T06:46:59;7.50;98.00
26575;DHT22;67165;50.256;10.978;2024-02-04T06:49:25;7.50;98.00
26575;DHT22;67165;50.256;10.978;2024-02-04T06:51:52;7.50;98.00
26575;DHT22;67165;50.256;10.978;2024-02-04T06:54:22;7.50;98.00
26575;DHT22;67165;50.256;10.978;2024-02-04T06:56:48;7.50;98.00
26575;DHT22;67165;50.256;10.978;2024-02-04T06:59:14;7.50;98.00
26575;DHT22;67165;50.256;10.978;2024-02-04T07:01:39;7.50;98.00
26575;DHT22;67165;50.256;10.978;2024-02-04T07:04:05;7.40;98.00
26575;DHT22;67165;50.256;10.978;2024-02-04T07:06:31;7.40;98.00
26575;DHT22;67165;50.256;10.978;2024-02-04T07:08:57;7.50;98.00
26575;DHT22;67165;50.256;10.978;2024-02-04T07:11:22;7.50;98.00
26575;DHT22;67165;50.256;10.978;2024-02-04T07:13:49;7.40;98.00
26575;DHT22;67165;50.256;10.978;2024-02-04T07:16:15;7.40;98.00
26575;DHT22;67165;50.256;10.978;2024-02-04T07:18:41;7.40;98.00
26575;DHT22;67165;50.256;10.978;2024-02-04T07:21:06;7.40;98.00
26575;DHT22;67165;50.256;10.978;2024-02-04T07:23:32;7.40;98.00
26575;DHT22;67165;50.256;10.978;2024-02-04T07:25:58;7.30;98.00
26575;DHT22;67165;50.256;10.978;2024-02-04T07:28:24;7.30;98.00
26575;DHT22;67165;50.256;10.978;2024-02-04T07:30:49;7.30;98.00
26575;DHT22;67165;50.256;10.978;2024-02-04T07:33:15;7.30;98.00
26575;DHT22;67165;50.256;10.978;2024-02-04T07:35:41;7.30;98.00
26575;DHT22;67165;50.256;10.978;2024-02-04T07:38:06;7.30;98.00
26575;DHT22;67165;50.256;10.978;2024-02-04T07:40:32;7.30;98.00
26575;DHT22;67165;50.256;10.978;2024-02-04T07:42:58;7.30;98.00
26575;DHT22;67165;50.256;10.978;2024-02-04T07:45:24;7.30;98.00
26575;DHT22;67165;50.256;10.978;2024-02-04T07:47:49;7.30;98.00
26575;DHT22;67165;50.256;10.978;2024-02-04T07:50:15;7.30;98.00
26575;DHT22;67165;50.256;10.978;2024-02-04T07:52:41;7.30;98.00
26575;DHT22;67165;50.256;10.978;2024-02-04T07:55:07;7.40;98.00
26575;DHT22;67165;50.256;10.978;2024-02-04T07:57:33;7.40;98.00
26575;DHT22;67165;50.256;10.978;2024-02-04T07:59:58;7.40;98.00
26575;DHT22;67165;50.256;10.978;2024-02-04T08:02:24;7.40;98.00
26575;DHT22;67165;50.256;10.978;2024-02-04T08:04:50;7.40;98.00
26575;DHT22;67165;50.256;10.978;2024-02-04T08:07:15;7.50;98.00
26575;DHT22;67165;50.256;10.978;2024-02-04T08:09:43;7.50;98.00
26575;DHT22;67165;50.256;10.978;2024-02-04T08:12:08;7.60;98.00
26575;DHT22;67165;50.256;10.978;2024-02-04T08:14:35;7.50;98.00
26575;DHT22;67165;50.256;10.978;2024-02-04T08:17:01;7.50;98.00
26575;DHT22;67165;50.256;10.978;2024-02-04T08:19:26;7.50;98.00
26575;DHT22;67165;50.256;10.978;2024-02-04T08:21:52;7.50;98.00
26575;DHT22;67165;50.256;10.978;2024-02-04T08:24:18;7.50;98.00
26575;DHT22;67165;50.256;10.978;2024-02-04T08:26:43;7.60;98.00
26575;DHT22;67165;50.256;10.978;2024-02-04T08:29:09;7.60;98.00
26575;DHT22;67165;50.256;10.978;2024-02-04T08:31:36;7.60;98.00
26575;DHT22;67165;50.256;10.978;2024-02-04T08:34:02;7.70;98.00
26575;DHT22;67165;50.256;10.978;2024-02-04T08:36:29;7.60;98.00
26575;DHT22;67165;50.256;10.978;2024-02-04T08:38:56;7.60;98.00
26575;DHT22;67165;50.256;10.978;2024-02-04T08:41:22;7.60;98.00
26575;DHT22;67165;50.256;10.978;2024-02-04T08:43:47;7.80;98.00
26575;DHT22;67165;50.256;10.978;2024-02-04T08:46:13;7.80;98.00
26575;DHT22;67165;50.256;10.978;2024-02-04T08:48:39;7.80;98.00
26575;DHT22;67165;50.256;10.978;2024-02-04T08:51:10;7.90;98.00
26575;DHT22;67165;50.256;10.978;2024-02-04T08:53:36;7.90;98.00
26575;DHT22;67165;50.256;10.978;2024-02-04T08:56:02;8.00;98.00
26575;DHT22;67165;50.256;10.978;2024-02-04T08:58:28;8.00;98.00
26575;DHT22;67165;50.256;10.978;2024-02-04T09:00:54;8.10;98.00
26575;DHT22;67165;50.256;10.978;2024-02-04T09:03:19;8.20;98.00
26575;DHT22;67165;50.256;10.978;2024-02-04T09:05:45;8.20;98.00
26575;DHT22;67165;50.256;10.978;2024-02-04T09:08:11;8.20;98.00
26575;DHT22;67165;50.256;10.978;2024-02-04T09:10:37;8.20;98.00
26575;DHT22;67165;50.256;10.978;2024-02-04T09:13:03;8.30;98.00
26575;DHT22;67165;50.256;10.978;2024-02-04T09:15:28;8.30;98.00
26575;DHT22;67165;50.256;10.978;2024-02-04T09:17:54;8.20;98.00
26575;DHT22;67165;50.256;10.978;2024-02-04T09:20:20;8.20;98.00
26575;DHT22;67165;50.256;10.978;2024-02-04T09:22:45;8.20;98.00
26575;DHT22;67165;50.256;10.978;2024-02-04T09:25:11;8.10;98.00
26575;DHT22;67165;50.256;10.978;2024-02-04T09:27:37;8.20;98.00
26575;DHT22;67165;50.256;10.978;2024-02-04T09:30:04;8.20;98.00
26575;DHT22;67165;50.256;10.978;2024-02-04T09:32:31;8.20;98.00
26575;DHT22;67165;50.256;10.978;2024-02-04T09:34:57;8.20;98.00
26575;DHT22;67165;50.256;10.978;2024-02-04T09:37:24;8.30;98.00
26575;DHT22;67165;50.256;10.978;2024-02-04T09:39:49;8.30;98.00
26575;DHT22;67165;50.256;10.978;2024-02-04T09:42:24;8.40;98.00
26575;DHT22;67165;50.256;10.978;2024-02-04T09:44:50;8.40;98.00
26575;DHT22;67165;50.256;10.978;2024-02-04T09:47:17;8.40;98.00
26575;DHT22;67165;50.256;10.978;2024-02-04T09:49:43;8.50;98.00
26575;DHT22;67165;50.256;10.978;2024-02-04T09:52:10;8.50;98.00
26575;DHT22;67165;50.256;10.978;2024-02-04T09:54:45;8.40;98.00
26575;DHT22;67165;50.256;10.978;2024-02-04T09:57:13;8.40;98.00
26575;DHT22;67165;50.256;10.978;2024-02-04T09:59:39;8.40;98.00
26575;DHT22;67165;50.256;10.978;2024-02-04T10:02:06;8.40;98.00
26575;DHT22;67165;50.256;10.978;2024-02-04T10:04:33;8.30;98.00
26575;DHT22;67165;50.256;10.978;2024-02-04T10:06:59;8.30;98.00
26575;DHT22;67165;50.256;10.978;2024-02-04T10:09:25;8.30;98.00
26575;DHT22;67165;50.256;10.978;2024-02-04T10:11:51;8.20;98.00
26575;DHT22;67165;50.256;10.978;2024-02-04T10:14:17;8.20;98.00
26575;DHT22;67165;50.256;10.978;2024-02-04T10:16:45;8.20;98.00
26575;DHT22;67165;50.256;10.978;2024-02-04T10:19:11;8.30;98.00
26575;DHT22;67165;50.256;10.978;2024-02-04T10:21:37;8.30;98.00
26575;DHT22;67165;50.256;10.978;2024-02-04T10:24:03;8.40;98.00
26575;DHT22;67165;50.256;10.978;2024-02-04T10:26:29;8.40;98.00
26575;DHT22;67165;50.256;10.978;2024-02-04T10:29:00;8.30;98.00
26575;DHT22;67165;50.256;10.978;2024-02-04T10:31:26;8.30;98.00
26575;DHT22;67165;50.256;10.978;2024-02-04T10:33:52;8.30;98.00
26575;DHT22;67165;50.256;10.978;2024-02-04T10:36:18;8.30;98.00
26575;DHT22;67165;50.256;10.978;2024-02-04T10:38:44;8.30;98.00
26575;DHT22;67165;50.256;10.978;2024-02-04T10:41:15;8.20;98.00
26575;DHT22;67165;50.256;10.978;2024-02-04T10:43:42;8.20;98.00
26575;DHT22;67165;50.256;10.978;2024-02-04T10:48:36;8.20;98.00
26575;DHT22;67165;50.256;10.978;2024-02-04T10:51:17;8.20;98.00
26575;DHT22;67165;50.256;10.978;2024-02-04T10:53:45;8.30;98.00
26575;DHT22;67165;50.256;10.978;2024-02-04T10:58:55;8.30;98.00
26575;DHT22;67165;50.256;10.978;2024-02-04T11:01:22;8.30;98.00
26575;DHT22;67165;50.256;10.978;2024-02-04T11:03:50;8.40;98.00
26575;DHT22;67165;50.256;10.978;2024-02-04T11:06:19;8.40;98.00
26575;DHT22;67165;50.256;10.978;2024-02-04T11:08:46;8.30;98.00
26575;DHT22;67165;50.256;10.978;2024-02-04T11:11:12;8.30;98.00
26575;DHT22;67165;50.256;10.978;2024-02-04T11:13:40;8.40;98.00
26575;DHT22;67165;50.256;10.978;2024-02-04T11:16:30;8.40;98.00
26575;DHT22;67165;50.256;10.978;2024-02-04T11:27:47;8.40;98.00
26575;DHT22;67165;50.256;10.978;2024-02-04T11:30:13;8.40;98.00
26575;DHT22;67165;50.256;10.978;2024-02-04T11:32:41;8.40;98.00
26575;DHT22;67165;50.256;10.978;2024-02-04T11:35:07;8.40;98.00
26575;DHT22;67165;50.256;10.978;2024-02-04T11:37:34;8.40;98.00
26575;DHT22;67165;50.256;10.978;2024-02-04T11:39:59;8.50;98.00
26575;DHT22;67165;50.256;10.978;2024-02-04T11:42:31;8.60;98.00
26575;DHT22;67165;50.256;10.978;2024-02-04T11:45:11;8.50;98.00
26575;DHT22;67165;50.256;10.978;2024-02-04T11:47:37;8.50;98.00
26575;DHT22;67165;50.256;10.978;2024-02-04T11:50:03;8.50;98.00
26575;DHT22;67165;50.256;10.978;2024-02-04T11:52:29;8.50;98.00
26575;DHT22;67165;50.256;10.978;2024-02-04T11:54:55;8.50;98.00
26575;DHT22;67165;50.256;10.978;2024-02-04T11:57:22;8.50;98.00
26575;DHT22;67165;50.256;10.978;2024-02-04T11:59:48;8.50;98.00
26575;DHT22;67165;50.256;10.978;2024-02-04T12:02:17;8.60;98.00
26575;DHT22;67165;50.256;10.978;2024-02-04T12:04:44;8.60;98.00
26575;DHT22;67165;50.256;10.978;2024-02-04T12:07:10;8.60;98.00
26575;DHT22;67165;50.256;10.978;2024-02-04T12:09:36;8.60;98.00
26575;DHT22;67165;50.256;10.978;2024-02-04T12:12:04;8.60;98.00
26575;DHT22;67165;50.256;10.978;2024-02-04T12:14:30;8.60;98.00
26575;DHT22;67165;50.256;10.978;2024-02-04T12:16:57;8.60;98.00
26575;DHT22;67165;50.256;10.978;2024-02-04T12:19:25;8.60;98.00
26575;DHT22;67165;50.256;10.978;2024-02-04T12:21:52;8.70;98.00
26575;DHT22;67165;50.256;10.978;2024-02-04T12:24:20;8.70;98.00
26575;DHT22;67165;50.256;10.978;2024-02-04T12:26:46;8.70;98.00
26575;DHT22;67165;50.256;10.978;2024-02-04T12:29:13;8.80;98.00
26575;DHT22;67165;50.256;10.978;2024-02-04T12:31:40;8.80;98.00
26575;DHT22;67165;50.256;10.978;2024-02-04T12:34:07;8.80;98.00
26575;DHT22;67165;50.256;10.978;2024-02-04T12:36:33;8.90;98.00
26575;DHT22;67165;50.256;10.978;2024-02-04T12:39:03;9.00;98.00
26575;DHT22;67165;50.256;10.978;2024-02-04T12:41:29;9.10;98.00
26575;DHT22;67165;50.256;10.978;2024-02-04T12:43:59;9.00;98.00
26575;DHT22;67165;50.256;10.978;2024-02-04T12:46:26;9.00;98.00
26575;DHT22;67165;50.256;10.978;2024-02-04T12:48:59;9.00;98.00
26575;DHT22;67165;50.256;10.978;2024-02-04T12:51:30;8.90;98.00
26575;DHT22;67165;50.256;10.978;2024-02-04T12:56:50;9.10;98.00
26575;DHT22;67165;50.256;10.978;2024-02-04T13:01:56;9.10;98.00
26575;DHT22;67165;50.256;10.978;2024-02-04T13:04:22;9.10;98.00
26575;DHT22;67165;50.256;10.978;2024-02-04T13:06:48;9.00;98.00
26575;DHT22;67165;50.256;10.978;2024-02-04T13:09:15;9.00;98.00
26575;DHT22;67165;50.256;10.978;2024-02-04T13:11:42;9.00;98.00
26575;DHT22;67165;50.256;10.978;2024-02-04T13:14:08;9.10;98.00
26575;DHT22;67165;50.256;10.978;2024-02-04T13:16:34;9.10;98.00
26575;DHT22;67165;50.256;10.978;2024-02-04T13:19:02;9.20;98.00
26575;DHT22;67165;50.256;10.978;2024-02-04T13:21:28;9.20;98.00
26575;DHT22;67165;50.256;10.978;2024-02-04T13:23:54;9.20;98.00
26575;DHT22;67165;50.256;10.978;2024-02-04T13:26:20;9.20;98.00
26575;DHT22;67165;50.256;10.978;2024-02-04T13:28:46;9.30;98.00
26575;DHT22;67165;50.256;10.978;2024-02-04T13:31:12;9.30;98.00
26575;DHT22;67165;50.256;10.978;2024-02-04T13:33:38;9.30;98.00
26575;DHT22;67165;50.256;10.978;2024-02-04T13:36:08;9.30;98.00
26575;DHT22;67165;50.256;10.978;2024-02-04T13:38:34;9.30;98.00
26575;DHT22;67165;50.256;10.978;2024-02-04T13:41:01;9.40;98.00
26575;DHT22;67165;50.256;10.978;2024-02-04T13:43:27;9.30;98.00
26575;DHT22;67165;50.256;10.978;2024-02-04T13:45:53;9.30;98.00
26575;DHT22;67165;50.256;10.978;2024-02-04T13:48:20;9.30;98.00
26575;DHT22;67165;50.256;10.978;2024-02-04T13:50:47;9.30;98.00
26575;DHT22;67165;50.256;10.978;2024-02-04T13:53:13;9.30;98.00
26575;DHT22;67165;50.256;10.978;2024-02-04T13:55:39;9.30;98.00
26575;DHT22;67165;50.256;10.978;2024-02-04T13:58:05;9.40;98.00
26575;DHT22;67165;50.256;10.978;2024-02-04T14:00:31;9.40;98.00
26575;DHT22;67165;50.256;10.978;2024-02-04T14:02:57;9.40;98.00
26575;DHT22;67165;50.256;10.978;2024-02-04T14:05:23;9.40;98.00
26575;DHT22;67165;50.256;10.978;2024-02-04T14:07:51;9.30;98.00
26575;DHT22;67165;50.256;10.978;2024-02-04T14:10:17;9.30;98.00
26575;DHT22;67165;50.256;10.978;2024-02-04T14:12:43;9.30;98.00
26575;DHT22;67165;50.256;10.978;2024-02-04T14:15:11;9.30;98.00
26575;DHT22;67165;50.256;10.978;2024-02-04T14:17:37;9.20;98.00
26575;DHT22;67165;50.256;10.978;2024-02-04T14:20:03;9.20;98.00
26575;DHT22;67165;50.256;10.978;2024-02-04T14:22:30;9.30;98.00
26575;DHT22;67165;50.256;10.978;2024-02-04T14:24:56;9.20;98.00
26575;DHT22;67165;50.256;10.978;2024-02-04T14:27:23;9.10;98.00
26575;DHT22;67165;50.256;10.978;2024-02-04T14:29:48;9.10;98.00
26575;DHT22;67165;50.256;10.978;2024-02-04T14:32:14;9.10;98.00
26575;DHT22;67165;50.256;10.978;2024-02-04T14:34:40;9.00;98.00
26575;DHT22;67165;50.256;10.978;2024-02-04T14:37:06;9.10;98.00
26575;DHT22;67165;50.256;10.978;2024-02-04T14:39:32;9.00;98.00
26575;DHT22;67165;50.256;10.978;2024-02-04T14:41:58;9.00;98.00
26575;DHT22;67165;50.256;10.978;2024-02-04T14:44:24;9.00;98.00
26575;DHT22;67165;50.256;10.978;2024-02-04T14:46:50;9.00;98.00
26575;DHT22;67165;50.256;10.978;2024-02-04T14:49:15;9.00;98.00
26575;DHT22;67165;50.256;10.978;2024-02-04T14:51:41;8.90;98.00
26575;DHT22;67165;50.256;10.978;2024-02-04T14:54:07;8.90;98.00
26575;DHT22;67165;50.256;10.978;2024-02-04T14:56:42;8.90;98.00
26575;DHT22;67165;50.256;10.978;2024-02-04T14:59:10;8.90;98.00
26575;DHT22;67165;50.256;10.978;2024-02-04T15:01:37;8.90;98.00
26575;DHT22;67165;50.256;10.978;2024-02-04T15:04:03;8.90;98.00
26575;DHT22;67165;50.256;10.978;2024-02-04T15:06:30;8.90;98.00
26575;DHT22;67165;50.256;10.978;2024-02-04T15:08:57;8.90;98.00
26575;DHT22;67165;50.256;10.978;2024-02-04T15:11:25;8.90;98.00
26575;DHT22;67165;50.256;10.978;2024-02-04T15:13:52;8.90;98.00
26575;DHT22;67165;50.256;10.978;2024-02-04T15:16:19;8.90;98.00
26575;DHT22;67165;50.256;10.978;2024-02-04T15:18:45;8.90;98.00
26575;DHT22;67165;50.256;10.978;2024-02-04T15:21:11;8.80;98.00
26575;DHT22;67165;50.256;10.978;2024-02-04T15:23:37;8.80;98.00
26575;DHT22;67165;50.256;10.978;2024-02-04T15:26:04;8.80;98.00
26575;DHT22;67165;50.256;10.978;2024-02-04T15:28:31;8.80;98.00
26575;DHT22;67165;50.256;10.978;2024-02-04T15:30:57;8.80;98.00
26575;DHT22;67165;50.256;10.978;2024-02-04T15:33:23;8.80;98.00
26575;DHT22;67165;50.256;10.978;2024-02-04T15:35:49;8.80;98.00
26575;DHT22;67165;50.256;10.978;2024-02-04T15:38:16;8.80;98.00
26575;DHT22;67165;50.256;10.978;2024-02-04T15:40:42;8.80;98.00
26575;DHT22;67165;50.256;10.978;2024-02-04T15:43:10;8.70;98.00
26575;DHT22;67165;50.256;10.978;2024-02-04T15:45:35;8.80;98.00
26575;DHT22;67165;50.256;10.978;2024-02-04T15:48:03;8.70;98.00